sensor_id;sensor_type;location;lat;lon;timestamp;pressure;altitude;pressure_sealevel;temperature
73734;BMP280;62039;50.000;9.064;2022-09-19T00:01:07;100263.47;;;8.89
73734;BMP280;62039;50.000;9.064;2022-09-19T00:03:34;100259.88;;;8.90
73734;BMP280;62039;50.000;9.064;2022-09-19T00:06:00;100256.47;;;8.90
73734;BMP280;62039;50.000;9.064;2022-09-19T00:08:27;100260.88;;;8.89
73734;BMP280;62039;50.000;9.064;2022-09-19T00:10:55;100247.84;;;8.89
73734;BMP280;62039;50.000;9.064;2022-09-19T00:13:21;100249.44;;;8.90
73734;BMP280;62039;50.000;9.064;2022-09-19T00:15:49;100250.28;;;8.91
73734;BMP280;62039;50.000;9.064;2022-09-19T00:18:16;100257.25;;;8.90
73734;BMP280;62039;50.000;9.064;2022-09-19T00:20:43;100258.25;;;8.89
73734;BMP280;62039;50.000;9.064;2022-09-19T00:23:10;100252.38;;;8.87
73734;BMP280;62039;50.000;9.064;2022-09-19T00:25:37;100256.75;;;8.87
73734;BMP280;62039;50.000;9.064;2022-09-19T00:28:04;100254.97;;;8.87
73734;BMP280;62039;50.000;9.064;2022-09-19T00:30:37;100250.44;;;8.89
73734;BMP280;62039;50.000;9.064;2022-09-19T00:33:03;100251.41;;;8.88
73734;BMP280;62039;50.000;9.064;2022-09-19T00:35:30;100261.97;;;8.87
73734;BMP280;62039;50.000;9.064;2022-09-19T00:37:57;100255.25;;;8.84
73734;BMP280;62039;50.000;9.064;2022-09-19T00:40:23;100256.25;;;8.83
73734;BMP280;62039;50.000;9.064;2022-09-19T00:42:50;100250.22;;;8.83
73734;BMP280;62039;50.000;9.064;2022-09-19T00:45:17;100252.00;;;8.82
73734;BMP280;62039;50.000;9.064;2022-09-19T00:47:46;100254.63;;;8.82
73734;BMP280;62039;50.000;9.064;2022-09-19T00:50:18;100251.06;;;8.83
73734;BMP280;62039;50.000;9.064;2022-09-19T00:52:47;100249.41;;;8.82
73734;BMP280;62039;50.000;9.064;2022-09-19T00:55:15;100255.59;;;8.81
73734;BMP280;62039;50.000;9.064;2022-09-19T00:57:57;100251.34;;;8.80
73734;BMP280;62039;50.000;9.064;2022-09-19T01:00:26;100251.63;;;8.77
73734;BMP280;62039;50.000;9.064;2022-09-19T01:02:54;100251.94;;;8.74
73734;BMP280;62039;50.000;9.064;2022-09-19T01:05:28;100255.50;;;8.73
73734;BMP280;62039;50.000;9.064;2022-09-19T01:08:22;100261.03;;;8.70
73734;BMP280;62039;50.000;9.064;2022-09-19T01:11:13;100271.38;;;8.62
73734;BMP280;62039;50.000;9.064;2022-09-19T01:13:49;100273.28;;;8.60
73734;BMP280;62039;50.000;9.064;2022-09-19T01:16:23;100273.53;;;8.57
73734;BMP280;62039;50.000;9.064;2022-09-19T01:18:54;100268.50;;;8.55
73734;BMP280;62039;50.000;9.064;2022-09-19T01:21:23;100270.56;;;8.52
73734;BMP280;62039;50.000;9.064;2022-09-19T01:24:17;100270.88;;;8.49
73734;BMP280;62039;50.000;9.064;2022-09-19T01:27:06;100273.75;;;8.46
73734;BMP280;62039;50.000;9.064;2022-09-19T01:29:39;100278.00;;;8.47
73734;BMP280;62039;50.000;9.064;2022-09-19T01:32:13;100273.63;;;8.47
73734;BMP280;62039;50.000;9.064;2022-09-19T01:34:44;100274.44;;;8.48
73734;BMP280;62039;50.000;9.064;2022-09-19T01:37:14;100276.09;;;8.49
73734;BMP280;62039;50.000;9.064;2022-09-19T01:39:44;100284.84;;;8.48
73734;BMP280;62039;50.000;9.064;2022-09-19T01:42:13;100283.22;;;8.47
73734;BMP280;62039;50.000;9.064;2022-09-19T01:44:41;100293.63;;;8.47
73734;BMP280;62039;50.000;9.064;2022-09-19T01:47:15;100280.63;;;8.47
73734;BMP280;62039;50.000;9.064;2022-09-19T01:49:50;100284.84;;;8.48
73734;BMP280;62039;50.000;9.064;2022-09-19T01:52:39;100289.09;;;8.49
73734;BMP280;62039;50.000;9.064;2022-09-19T01:55:14;100286.50;;;8.49
73734;BMP280;62039;50.000;9.064;2022-09-19T01:57:46;100293.34;;;8.50
73734;BMP280;62039;50.000;9.064;2022-09-19T02:00:18;100288.78;;;8.52
73734;BMP280;62039;50.000;9.064;2022-09-19T02:02:54;100289.47;;;8.54
73734;BMP280;62039;50.000;9.064;2022-09-19T02:05:27;100292.75;;;8.56
73734;BMP280;62039;50.000;9.064;2022-09-19T02:08:00;100301.22;;;8.58
73734;BMP280;62039;50.000;9.064;2022-09-19T02:10:30;100296.00;;;8.58
73734;BMP280;62039;50.000;9.064;2022-09-19T02:12:59;100306.44;;;8.58
73734;BMP280;62039;50.000;9.064;2022-09-19T02:15:31;100297.66;;;8.59
73734;BMP280;62039;50.000;9.064;2022-09-19T02:18:04;100295.88;;;8.59
73734;BMP280;62039;50.000;9.064;2022-09-19T02:20:33;100296.72;;;8.60
73734;BMP280;62039;50.000;9.064;2022-09-19T02:23:06;100302.88;;;8.59
73734;BMP280;62039;50.000;9.064;2022-09-19T02:25:35;100305.59;;;8.57
73734;BMP280;62039;50.000;9.064;2022-09-19T02:28:06;100306.44;;;8.58
73734;BMP280;62039;50.000;9.064;2022-09-19T02:30:35;100316.03;;;8.57
73734;BMP280;62039;50.000;9.064;2022-09-19T02:33:03;100313.59;;;8.56
73734;BMP280;62039;50.000;9.064;2022-09-19T02:35:35;100316.03;;;8.57
73734;BMP280;62039;50.000;9.064;2022-09-19T02:38:09;100312.59;;;8.57
73734;BMP280;62039;50.000;9.064;2022-09-19T02:40:49;100315.19;;;8.57
73734;BMP280;62039;50.000;9.064;2022-09-19T02:43:23;100314.41;;;8.56
73734;BMP280;62039;50.000;9.064;2022-09-19T02:45:55;100322.06;;;8.58
73734;BMP280;62039;50.000;9.064;2022-09-19T02:48:28;100333.19;;;8.60
73734;BMP280;62039;50.000;9.064;2022-09-19T02:50:58;100328.66;;;8.62
73734;BMP280;62039;50.000;9.064;2022-09-19T02:53:30;100325.88;;;8.63
73734;BMP280;62039;50.000;9.064;2022-09-19T02:56:02;100330.94;;;8.65
73734;BMP280;62039;50.000;9.064;2022-09-19T02:58:33;100331.09;;;8.63
73734;BMP280;62039;50.000;9.064;2022-09-19T03:01:05;100339.72;;;8.64
73734;BMP280;62039;50.000;9.064;2022-09-19T03:03:35;100342.03;;;8.67
73734;BMP280;62039;50.000;9.064;2022-09-19T03:06:05;100355.75;;;8.69
73734;BMP280;62039;50.000;9.064;2022-09-19T03:08:34;100345.97;;;8.71
73734;BMP280;62039;50.000;9.064;2022-09-19T03:11:03;100345.84;;;8.73
73734;BMP280;62039;50.000;9.064;2022-09-19T03:13:32;100340.50;;;8.74
73734;BMP280;62039;50.000;9.064;2022-09-19T03:16:03;100349.63;;;8.78
73734;BMP280;62039;50.000;9.064;2022-09-19T03:18:31;100351.97;;;8.81
73734;BMP280;62039;50.000;9.064;2022-09-19T03:21:02;100349.03;;;8.84
73734;BMP280;62039;50.000;9.064;2022-09-19T03:23:34;100342.59;;;8.88
73734;BMP280;62039;50.000;9.064;2022-09-19T03:26:04;100348.44;;;8.90
73734;BMP280;62039;50.000;9.064;2022-09-19T03:28:32;100355.31;;;8.91
73734;BMP280;62039;50.000;9.064;2022-09-19T03:30:59;100367.38;;;8.92
73734;BMP280;62039;50.000;9.064;2022-09-19T03:33:27;100362.84;;;8.94
73734;BMP280;62039;50.000;9.064;2022-09-19T03:35:54;100368.72;;;8.96
73734;BMP280;62039;50.000;9.064;2022-09-19T03:38:20;100371.97;;;8.98
73734;BMP280;62039;50.000;9.064;2022-09-19T03:40:47;100375.25;;;9.00
73734;BMP280;62039;50.000;9.064;2022-09-19T03:43:13;100381.16;;;9.02
73734;BMP280;62039;50.000;9.064;2022-09-19T03:45:40;100383.59;;;9.04
73734;BMP280;62039;50.000;9.064;2022-09-19T03:48:06;100389.34;;;9.08
73734;BMP280;62039;50.000;9.064;2022-09-19T03:50:34;100394.25;;;9.11
73734;BMP280;62039;50.000;9.064;2022-09-19T03:53:01;100392.44;;;9.11
73734;BMP280;62039;50.000;9.064;2022-09-19T03:55:27;100388.75;;;9.14
73734;BMP280;62039;50.000;9.064;2022-09-19T03:57:54;100402.31;;;9.17
73734;BMP280;62039;50.000;9.064;2022-09-19T04:00:20;100396.94;;;9.19
73734;BMP280;62039;50.000;9.064;2022-09-19T04:02:47;100395.97;;;9.20
73734;BMP280;62039;50.000;9.064;2022-09-19T04:05:13;100400.06;;;9.22
73734;BMP280;62039;50.000;9.064;2022-09-19T04:07:41;100401.53;;;9.25
73734;BMP280;62039;50.000;9.064;2022-09-19T04:10:08;100400.56;;;9.26
73734;BMP280;62039;50.000;9.064;2022-09-19T04:12:34;100402.91;;;9.29
73734;BMP280;62039;50.000;9.064;2022-09-19T04:15:01;100404.38;;;9.31
73734;BMP280;62039;50.000;9.064;2022-09-19T04:17:27;100418.91;;;9.34
73734;BMP280;62039;50.000;9.064;2022-09-19T04:19:54;100419.56;;;9.36
73734;BMP280;62039;50.000;9.064;2022-09-19T04:22:21;100413.41;;;9.37
73734;BMP280;62039;50.000;9.064;2022-09-19T04:24:48;100418.31;;;9.40
73734;BMP280;62039;50.000;9.064;2022-09-19T04:27:15;100409.50;;;9.41
73734;BMP280;62039;50.000;9.064;2022-09-19T04:29:46;100421.59;;;9.42
73734;BMP280;62039;50.000;9.064;2022-09-19T04:32:13;100423.22;;;9.43
73734;BMP280;62039;50.000;9.064;2022-09-19T04:34:39;100422.91;;;9.46
73734;BMP280;62039;50.000;9.064;2022-09-19T04:37:05;100428.13;;;9.46
73734;BMP280;62039;50.000;9.064;2022-09-19T04:39:32;100421.94;;;9.47
73734;BMP280;62039;50.000;9.064;2022-09-19T04:42:00;100423.72;;;9.47
73734;BMP280;62039;50.000;9.064;2022-09-19T04:44:26;100430.59;;;9.48
73734;BMP280;62039;50.000;9.064;2022-09-19T04:46:53;100433.34;;;9.46
73734;BMP280;62039;50.000;9.064;2022-09-19T04:49:20;100427.31;;;9.46
73734;BMP280;62039;50.000;9.064;2022-09-19T04:51:46;100432.53;;;9.46
73734;BMP280;62039;50.000;9.064;2022-09-19T04:54:13;100441.16;;;9.46
73734;BMP280;62039;50.000;9.064;2022-09-19T04:56:40;100440.34;;;9.46
73734;BMP280;62039;50.000;9.064;2022-09-19T04:59:08;100437.75;;;9.46
73734;BMP280;62039;50.000;9.064;2022-09-19T05:01:34;100444.72;;;9.45
73734;BMP280;62039;50.000;9.064;2022-09-19T05:04:01;100441.97;;;9.47
73734;BMP280;62039;50.000;9.064;2022-09-19T05:06:28;100440.19;;;9.47
73734;BMP280;62039;50.000;9.064;2022-09-19T05:08:54;100448.69;;;9.49
73734;BMP280;62039;50.000;9.064;2022-09-19T05:11:21;100455.56;;;9.50
73734;BMP280;62039;50.000;9.064;2022-09-19T05:13:48;100453.59;;;9.52
73734;BMP280;62039;50.000;9.064;2022-09-19T05:16:16;100467.31;;;9.54
73734;BMP280;62039;50.000;9.064;2022-09-19T05:18:42;100465.53;;;9.55
73734;BMP280;62039;50.000;9.064;2022-09-19T05:21:11;100473.22;;;9.56
73734;BMP280;62039;50.000;9.064;2022-09-19T05:23:38;100482.00;;;9.55
73734;BMP280;62039;50.000;9.064;2022-09-19T05:26:06;100482.81;;;9.56
73734;BMP280;62039;50.000;9.064;2022-09-19T05:28:33;100480.22;;;9.56
73734;BMP280;62039;50.000;9.064;2022-09-19T05:31:00;100488.88;;;9.56
73734;BMP280;62039;50.000;9.064;2022-09-19T05:33:28;100491.47;;;9.56
73734;BMP280;62039;50.000;9.064;2022-09-19T05:35:54;100490.66;;;9.56
73734;BMP280;62039;50.000;9.064;2022-09-19T05:38:21;100491.47;;;9.56
73734;BMP280;62039;50.000;9.064;2022-09-19T05:40:50;100505.16;;;9.58
73734;BMP280;62039;50.000;9.064;2022-09-19T05:43:16;100494.47;;;9.61
73734;BMP280;62039;50.000;9.064;2022-09-19T05:45:43;100497.75;;;9.63
73734;BMP280;62039;50.000;9.064;2022-09-19T05:48:09;100511.44;;;9.65
73734;BMP280;62039;50.000;9.064;2022-09-19T05:50:37;100512.97;;;9.68
73734;BMP280;62039;50.000;9.064;2022-09-19T05:53:04;100516.25;;;9.70
73734;BMP280;62039;50.000;9.064;2022-09-19T05:55:30;100523.91;;;9.71
73734;BMP280;62039;50.000;9.064;2022-09-19T05:57:57;100517.72;;;9.72
73734;BMP280;62039;50.000;9.064;2022-09-19T06:00:26;100519.34;;;9.73
73734;BMP280;62039;50.000;9.064;2022-09-19T06:02:54;100513.19;;;9.74
73734;BMP280;62039;50.000;9.064;2022-09-19T06:05:21;100525.13;;;9.77
73734;BMP280;62039;50.000;9.064;2022-09-19T06:07:49;100518.09;;;9.77
73734;BMP280;62039;50.000;9.064;2022-09-19T06:10:16;100529.19;;;9.79
73734;BMP280;62039;50.000;9.064;2022-09-19T06:12:43;100535.09;;;9.81
73734;BMP280;62039;50.000;9.064;2022-09-19T06:15:10;100537.41;;;9.85
73734;BMP280;62039;50.000;9.064;2022-09-19T06:17:37;100541.50;;;9.87
73734;BMP280;62039;50.000;9.064;2022-09-19T06:20:06;100535.16;;;9.90
73734;BMP280;62039;50.000;9.064;2022-09-19T06:22:35;100542.69;;;9.93
73734;BMP280;62039;50.000;9.064;2022-09-19T06:25:03;100536.50;;;9.94
73734;BMP280;62039;50.000;9.064;2022-09-19T06:27:30;100543.22;;;9.96
73734;BMP280;62039;50.000;9.064;2022-09-19T06:29:57;100540.47;;;9.98
73734;BMP280;62039;50.000;9.064;2022-09-19T06:32:23;100547.97;;;10.01
73734;BMP280;62039;50.000;9.064;2022-09-19T06:34:50;100548.66;;;10.03
73734;BMP280;62039;50.000;9.064;2022-09-19T06:37:24;100552.91;;;10.04
73734;BMP280;62039;50.000;9.064;2022-09-19T06:39:50;100552.72;;;10.05
73734;BMP280;62039;50.000;9.064;2022-09-19T06:42:18;100559.44;;;10.08
73734;BMP280;62039;50.000;9.064;2022-09-19T06:44:45;100547.22;;;10.08
73734;BMP280;62039;50.000;9.064;2022-09-19T06:47:11;100548.72;;;10.11
73734;BMP280;62039;50.000;9.064;2022-09-19T06:49:38;100552.94;;;10.12
73734;BMP280;62039;50.000;9.064;2022-09-19T06:52:04;100551.84;;;10.14
73734;BMP280;62039;50.000;9.064;2022-09-19T06:54:31;100560.47;;;10.15
73734;BMP280;62039;50.000;9.064;2022-09-19T06:56:57;100560.47;;;10.15
73734;BMP280;62039;50.000;9.064;2022-09-19T06:59:25;100573.25;;;10.18
73734;BMP280;62039;50.000;9.064;2022-09-19T07:01:52;100567.03;;;10.19
73734;BMP280;62039;50.000;9.064;2022-09-19T07:04:18;100577.19;;;10.22
73734;BMP280;62039;50.000;9.064;2022-09-19T07:06:45;100565.63;;;10.25
73734;BMP280;62039;50.000;9.064;2022-09-19T07:09:11;100570.53;;;10.28
73734;BMP280;62039;50.000;9.064;2022-09-19T07:11:38;100571.06;;;10.31
73734;BMP280;62039;50.000;9.064;2022-09-19T07:14:04;100572.38;;;10.35
73734;BMP280;62039;50.000;9.064;2022-09-19T07:16:32;100576.31;;;10.39
73734;BMP280;62039;50.000;9.064;2022-09-19T07:18:59;100584.69;;;10.43
73734;BMP280;62039;50.000;9.064;2022-09-19T07:21:25;100574.72;;;10.46
73734;BMP280;62039;50.000;9.064;2022-09-19T07:23:52;100582.13;;;10.51
73734;BMP280;62039;50.000;9.064;2022-09-19T07:26:18;100586.22;;;10.53
73734;BMP280;62039;50.000;9.064;2022-09-19T07:28:45;100580.25;;;10.61
73734;BMP280;62039;50.000;9.064;2022-09-19T07:31:11;100575.91;;;10.70
73734;BMP280;62039;50.000;9.064;2022-09-19T07:33:39;100585.44;;;10.79
73734;BMP280;62039;50.000;9.064;2022-09-19T07:36:06;100595.91;;;10.87
73734;BMP280;62039;50.000;9.064;2022-09-19T07:38:35;100590.88;;;10.93
73734;BMP280;62039;50.000;9.064;2022-09-19T07:41:02;100589.47;;;10.99
73734;BMP280;62039;50.000;9.064;2022-09-19T07:43:29;100589.81;;;11.04
73734;BMP280;62039;50.000;9.064;2022-09-19T07:45:56;100592.75;;;11.09
73734;BMP280;62039;50.000;9.064;2022-09-19T07:48:22;100591.31;;;11.15
73734;BMP280;62039;50.000;9.064;2022-09-19T07:50:50;100598.38;;;11.22
73734;BMP280;62039;50.000;9.064;2022-09-19T07:53:22;100601.19;;;11.29
73734;BMP280;62039;50.000;9.064;2022-09-19T07:55:49;100599.72;;;11.34
73734;BMP280;62039;50.000;9.064;2022-09-19T07:58:16;100602.69;;;11.39
73734;BMP280;62039;50.000;9.064;2022-09-19T08:00:43;100602.06;;;11.46
73734;BMP280;62039;50.000;9.064;2022-09-19T08:03:11;100599.66;;;11.52
73734;BMP280;62039;50.000;9.064;2022-09-19T08:05:39;100609.47;;;11.58
73734;BMP280;62039;50.000;9.064;2022-09-19T08:08:09;100610.78;;;11.62
73734;BMP280;62039;50.000;9.064;2022-09-19T08:10:36;100617.34;;;11.66
73734;BMP280;62039;50.000;9.064;2022-09-19T08:13:04;100623.91;;;11.70
73734;BMP280;62039;50.000;9.064;2022-09-19T08:15:31;100619.34;;;11.72
73734;BMP280;62039;50.000;9.064;2022-09-19T08:18:00;100619.97;;;11.74
73734;BMP280;62039;50.000;9.064;2022-09-19T08:20:29;100632.91;;;11.76
73734;BMP280;62039;50.000;9.064;2022-09-19T08:22:56;100633.41;;;11.80
73734;BMP280;62039;50.000;9.064;2022-09-19T08:25:24;100634.88;;;11.82
73734;BMP280;62039;50.000;9.064;2022-09-19T08:27:51;100637.34;;;11.84
73734;BMP280;62039;50.000;9.064;2022-09-19T08:30:18;100641.59;;;11.85
73734;BMP280;62039;50.000;9.064;2022-09-19T08:32:45;100635.53;;;11.84
73734;BMP280;62039;50.000;9.064;2022-09-19T08:35:12;100640.78;;;11.84
73734;BMP280;62039;50.000;9.064;2022-09-19T08:37:38;100636.50;;;11.83
73734;BMP280;62039;50.000;9.064;2022-09-19T08:40:05;100644.06;;;11.86
73734;BMP280;62039;50.000;9.064;2022-09-19T08:42:37;100645.69;;;11.87
73734;BMP280;62039;50.000;9.064;2022-09-19T08:45:14;100642.28;;;11.87
73734;BMP280;62039;50.000;9.064;2022-09-19T08:47:43;100642.09;;;11.88
73734;BMP280;62039;50.000;9.064;2022-09-19T08:50:13;100641.78;;;11.91
73734;BMP280;62039;50.000;9.064;2022-09-19T08:52:43;100652.91;;;11.93
73734;BMP280;62039;50.000;9.064;2022-09-19T08:55:15;100651.09;;;11.94
73734;BMP280;62039;50.000;9.064;2022-09-19T08:57:49;100652.72;;;11.95
73734;BMP280;62039;50.000;9.064;2022-09-19T09:00:18;100655.19;;;11.96
73734;BMP280;62039;50.000;9.064;2022-09-19T09:02:49;100649.66;;;11.99
73734;BMP280;62039;50.000;9.064;2022-09-19T09:05:39;100656.19;;;12.03
73734;BMP280;62039;50.000;9.064;2022-09-19T09:08:14;100656.50;;;12.08
73734;BMP280;62039;50.000;9.064;2022-09-19T09:10:50;100657.19;;;12.10
73734;BMP280;62039;50.000;9.064;2022-09-19T09:13:26;100658.66;;;12.13
73734;BMP280;62039;50.000;9.064;2022-09-19T09:16:20;100659.31;;;12.15
73734;BMP280;62039;50.000;9.064;2022-09-19T09:19:07;100660.13;;;12.15
73734;BMP280;62039;50.000;9.064;2022-09-19T09:21:41;100656.38;;;12.18
73734;BMP280;62039;50.000;9.064;2022-09-19T09:24:13;100656.22;;;12.20
73734;BMP280;62039;50.000;9.064;2022-09-19T09:27:00;100659.31;;;12.23
73734;BMP280;62039;50.000;9.064;2022-09-19T09:29:33;100654.91;;;12.32
73734;BMP280;62039;50.000;9.064;2022-09-19T09:32:03;100660.19;;;12.40
73734;BMP280;62039;50.000;9.064;2022-09-19T09:34:36;100654.94;;;12.48
73734;BMP280;62039;50.000;9.064;2022-09-19T09:37:05;100668.03;;;12.56
73734;BMP280;62039;50.000;9.064;2022-09-19T09:39:34;100664.13;;;12.60
73734;BMP280;62039;50.000;9.064;2022-09-19T09:42:03;100668.84;;;12.65
73734;BMP280;62039;50.000;9.064;2022-09-19T09:44:40;100664.75;;;12.70
73734;BMP280;62039;50.000;9.064;2022-09-19T09:47:16;100665.88;;;12.76
73734;BMP280;62039;50.000;9.064;2022-09-19T09:49:43;100663.75;;;12.79
73734;BMP280;62039;50.000;9.064;2022-09-19T09:52:22;100659.81;;;12.83
73734;BMP280;62039;50.000;9.064;2022-09-19T09:55:01;100658.66;;;12.86
73734;BMP280;62039;50.000;9.064;2022-09-19T09:57:36;100659.97;;;12.90
73734;BMP280;62039;50.000;9.064;2022-09-19T10:00:13;100662.25;;;12.93
73734;BMP280;62039;50.000;9.064;2022-09-19T10:02:47;100657.66;;;12.95
73734;BMP280;62039;50.000;9.064;2022-09-19T10:05:22;100648.78;;;12.96
73734;BMP280;62039;50.000;9.064;2022-09-19T10:07:58;100652.91;;;12.99
73734;BMP280;62039;50.000;9.064;2022-09-19T10:10:30;100648.31;;;13.01
73734;BMP280;62039;50.000;9.064;2022-09-19T10:13:01;100646.97;;;13.05
73734;BMP280;62039;50.000;9.064;2022-09-19T10:15:31;100641.72;;;13.05
73734;BMP280;62039;50.000;9.064;2022-09-19T10:18:01;100643.22;;;13.07
73734;BMP280;62039;50.000;9.064;2022-09-19T10:20:36;100647.44;;;13.08
73734;BMP280;62039;50.000;9.064;2022-09-19T10:23:03;100654.69;;;13.06
73734;BMP280;62039;50.000;9.064;2022-09-19T10:25:29;100643.38;;;13.06
73734;BMP280;62039;50.000;9.064;2022-09-19T10:28:00;100638.94;;;13.06
73734;BMP280;62039;50.000;9.064;2022-09-19T10:30:49;100644.03;;;13.08
73734;BMP280;62039;50.000;9.064;2022-09-19T10:33:26;100635.47;;;13.14
73734;BMP280;62039;50.000;9.064;2022-09-19T10:35:53;100642.72;;;13.20
73734;BMP280;62039;50.000;9.064;2022-09-19T10:38:22;100649.91;;;13.26
73734;BMP280;62039;50.000;9.064;2022-09-19T10:40:53;100642.31;;;13.31
73734;BMP280;62039;50.000;9.064;2022-09-19T10:43:21;100644.25;;;13.37
73734;BMP280;62039;50.000;9.064;2022-09-19T10:45:50;100636.53;;;13.44
73734;BMP280;62039;50.000;9.064;2022-09-19T10:48:21;100637.84;;;13.48
73734;BMP280;62039;50.000;9.064;2022-09-19T10:50:52;100637.16;;;13.54
73734;BMP280;62039;50.000;9.064;2022-09-19T10:53:20;100646.13;;;13.59
73734;BMP280;62039;50.000;9.064;2022-09-19T10:55:48;100641.84;;;13.66
73734;BMP280;62039;50.000;9.064;2022-09-19T10:58:17;100639.50;;;13.71
73734;BMP280;62039;50.000;9.064;2022-09-19T11:00:50;100643.41;;;13.75
73734;BMP280;62039;50.000;9.064;2022-09-19T11:03:19;100636.84;;;13.80
73734;BMP280;62039;50.000;9.064;2022-09-19T11:06:02;100640.22;;;13.88
73734;BMP280;62039;50.000;9.064;2022-09-19T11:08:29;100636.75;;;13.96
73734;BMP280;62039;50.000;9.064;2022-09-19T11:10:55;100631.59;;;14.02
73734;BMP280;62039;50.000;9.064;2022-09-19T11:13:22;100628.09;;;14.10
73734;BMP280;62039;50.000;9.064;2022-09-19T11:16:14;100630.69;;;14.18
73734;BMP280;62039;50.000;9.064;2022-09-19T11:19:09;100635.22;;;14.24
73734;BMP280;62039;50.000;9.064;2022-09-19T11:21:50;100638.78;;;14.31
73734;BMP280;62039;50.000;9.064;2022-09-19T11:24:33;100630.56;;;14.34
73734;BMP280;62039;50.000;9.064;2022-09-19T11:27:19;100630.19;;;14.37
73734;BMP280;62039;50.000;9.064;2022-09-19T11:30:00;100624.75;;;14.39
73734;BMP280;62039;50.000;9.064;2022-09-19T11:32:41;100629.19;;;14.38
73734;BMP280;62039;50.000;9.064;2022-09-19T11:35:24;100638.53;;;14.41
73734;BMP280;62039;50.000;9.064;2022-09-19T11:38:04;100630.66;;;14.41
73734;BMP280;62039;50.000;9.064;2022-09-19T11:41:05;100637.25;;;14.37
73734;BMP280;62039;50.000;9.064;2022-09-19T11:43:42;100627.75;;;14.36
73734;BMP280;62039;50.000;9.064;2022-09-19T11:46:20;100628.53;;;14.36
73734;BMP280;62039;50.000;9.064;2022-09-19T11:49:01;100625.75;;;14.38
73734;BMP280;62039;50.000;9.064;2022-09-19T11:51:40;100618.50;;;14.40
73734;BMP280;62039;50.000;9.064;2022-09-19T11:54:23;100620.97;;;14.41
73734;BMP280;62039;50.000;9.064;2022-09-19T11:57:08;100608.44;;;14.43
73734;BMP280;62039;50.000;9.064;2022-09-19T11:59:59;100606.28;;;14.47
73734;BMP280;62039;50.000;9.064;2022-09-19T12:02:35;100603.75;;;14.53
73734;BMP280;62039;50.000;9.064;2022-09-19T12:05:15;100607.13;;;14.62
73734;BMP280;62039;50.000;9.064;2022-09-19T12:07:51;100604.91;;;14.74
73734;BMP280;62039;50.000;9.064;2022-09-19T12:10:24;100600.66;;;14.87
73734;BMP280;62039;50.000;9.064;2022-09-19T12:12:56;100592.13;;;15.00
73734;BMP280;62039;50.000;9.064;2022-09-19T12:15:25;100600.81;;;15.15
73734;BMP280;62039;50.000;9.064;2022-09-19T12:17:57;100593.06;;;15.28
73734;BMP280;62039;50.000;9.064;2022-09-19T12:20:33;100591.22;;;15.44
73734;BMP280;62039;50.000;9.064;2022-09-19T12:23:05;100588.78;;;15.57
73734;BMP280;62039;50.000;9.064;2022-09-19T12:25:34;100586.63;;;15.67
73734;BMP280;62039;50.000;9.064;2022-09-19T12:28:04;100593.22;;;15.78
73734;BMP280;62039;50.000;9.064;2022-09-19T12:30:33;100584.84;;;15.89
73734;BMP280;62039;50.000;9.064;2022-09-19T12:33:07;100581.69;;;16.00
73734;BMP280;62039;50.000;9.064;2022-09-19T12:35:41;100583.00;;;16.11
73734;BMP280;62039;50.000;9.064;2022-09-19T12:38:17;100581.88;;;16.20
73734;BMP280;62039;50.000;9.064;2022-09-19T12:40:50;100579.47;;;16.25
73734;BMP280;62039;50.000;9.064;2022-09-19T12:43:25;100570.84;;;16.31
73734;BMP280;62039;50.000;9.064;2022-09-19T12:45:58;100585.06;;;16.36
73734;BMP280;62039;50.000;9.064;2022-09-19T12:48:32;100576.16;;;16.37
73734;BMP280;62039;50.000;9.064;2022-09-19T12:51:04;100581.59;;;16.36
73734;BMP280;62039;50.000;9.064;2022-09-19T12:53:35;100575.06;;;16.32
73734;BMP280;62039;50.000;9.064;2022-09-19T12:56:06;100576.28;;;16.29
73734;BMP280;62039;50.000;9.064;2022-09-19T12:58:38;100569.56;;;16.27
73734;BMP280;62039;50.000;9.064;2022-09-19T13:01:17;100578.47;;;16.26
73734;BMP280;62039;50.000;9.064;2022-09-19T13:03:48;100574.19;;;16.25
73734;BMP280;62039;50.000;9.064;2022-09-19T13:06:21;100577.25;;;16.22
73734;BMP280;62039;50.000;9.064;2022-09-19T13:08:52;100574.94;;;16.19
73734;BMP280;62039;50.000;9.064;2022-09-19T13:11:25;100568.50;;;16.21
73734;BMP280;62039;50.000;9.064;2022-09-19T13:13:58;100558.03;;;16.28
73734;BMP280;62039;50.000;9.064;2022-09-19T13:16:28;100560.53;;;16.36
73734;BMP280;62039;50.000;9.064;2022-09-19T13:18:56;100556.91;;;16.43
73734;BMP280;62039;50.000;9.064;2022-09-19T13:21:28;100555.75;;;16.53
73734;BMP280;62039;50.000;9.064;2022-09-19T13:23:59;100554.78;;;16.60
73734;BMP280;62039;50.000;9.064;2022-09-19T13:26:27;100559.09;;;16.68
73734;BMP280;62039;50.000;9.064;2022-09-19T13:28:55;100565.22;;;16.75
73734;BMP280;62039;50.000;9.064;2022-09-19T13:31:23;100557.53;;;16.80
73734;BMP280;62039;50.000;9.064;2022-09-19T13:33:51;100544.97;;;16.82
73734;BMP280;62039;50.000;9.064;2022-09-19T13:36:38;100547.59;;;16.82
73734;BMP280;62039;50.000;9.064;2022-09-19T13:39:45;100545.78;;;16.82
73734;BMP280;62039;50.000;9.064;2022-09-19T13:42:22;100547.00;;;16.86
73734;BMP280;62039;50.000;9.064;2022-09-19T13:44:57;100533.88;;;16.93
73734;BMP280;62039;50.000;9.064;2022-09-19T13:47:26;100553.38;;;16.99
73734;BMP280;62039;50.000;9.064;2022-09-19T13:49:56;100554.03;;;17.07
73734;BMP280;62039;50.000;9.064;2022-09-19T13:52:31;100538.03;;;17.15
73734;BMP280;62039;50.000;9.064;2022-09-19T13:55:14;100547.59;;;17.23
73734;BMP280;62039;50.000;9.064;2022-09-19T13:57:43;100549.44;;;17.29
73734;BMP280;62039;50.000;9.064;2022-09-19T14:00:26;100541.91;;;17.33
73734;BMP280;62039;50.000;9.064;2022-09-19T14:02:59;100543.53;;;17.34
73734;BMP280;62039;50.000;9.064;2022-09-19T14:05:26;100543.53;;;17.34
73734;BMP280;62039;50.000;9.064;2022-09-19T14:07:58;100551.47;;;17.34
73734;BMP280;62039;50.000;9.064;2022-09-19T14:10:47;100543.78;;;17.32
73734;BMP280;62039;50.000;9.064;2022-09-19T14:13:36;100548.44;;;17.30
73734;BMP280;62039;50.000;9.064;2022-09-19T14:16:30;100541.91;;;17.26
73734;BMP280;62039;50.000;9.064;2022-09-19T14:18:57;100541.50;;;17.22
73734;BMP280;62039;50.000;9.064;2022-09-19T14:21:54;100544.13;;;17.16
73734;BMP280;62039;50.000;9.064;2022-09-19T14:24:47;100547.56;;;17.16